createdAt,value
2018-12-16T00:02:19.816Z,101013.42
2018-12-16T00:04:50.656Z,101025.48
2018-12-16T00:07:21.509Z,101028.94
2018-12-16T00:09:50.377Z,101032.58
2018-12-16T00:12:19.272Z,101032.97
2018-12-16T00:14:48.282Z,101047.63
2018-12-16T00:17:18.288Z,101037.92
2018-12-16T00:19:47.164Z,101037.92
2018-12-16T00:22:16.073Z,101030.42
2018-12-16T00:24:44.933Z,101013.28
2018-12-16T00:27:14.075Z,100997.71
2018-12-16T00:29:43.055Z,100981.16
2018-12-16T00:32:11.978Z,100967.56
2018-12-16T00:34:40.820Z,100962.22
2018-12-16T00:37:10.260Z,100952.77
2018-12-16T00:39:39.117Z,100964.60
2018-12-16T00:42:07.992Z,100966.58
2018-12-16T00:44:36.902Z,100949.31
2018-12-16T00:47:05.895Z,100950.16
2018-12-16T00:49:34.814Z,100947.40
2018-12-16T00:52:03.780Z,100941.34
2018-12-16T00:54:33.276Z,100930.06
2018-12-16T00:57:02.101Z,100930.39
2018-12-16T00:59:31.101Z,100932.02
2018-12-16T01:01:59.984Z,100929.93
2018-12-16T01:04:28.948Z,100929.41
2018-12-16T01:06:57.834Z,100929.41
2018-12-16T01:09:27.117Z,100923.88
2018-12-16T01:11:56.647Z,100920.64
2018-12-16T01:14:25.532Z,100915.20
2018-12-16T01:16:54.464Z,100909.08
2018-12-16T01:19:23.296Z,100900.69
2018-12-16T01:21:53.120Z,100897.87
2018-12-16T01:24:22.108Z,100890.90
2018-12-16T01:26:51.014Z,100893.65
2018-12-16T01:29:19.888Z,100889.67
2018-12-16T01:31:48.795Z,100891.11
2018-12-16T01:34:17.685Z,100882.23
2018-12-16T01:36:46.565Z,100878.58
2018-12-16T01:39:15.452Z,100877.73
2018-12-16T01:41:44.344Z,100879.73
2018-12-16T01:44:13.225Z,100872.97
2018-12-16T01:46:42.117Z,100871.53
2018-12-16T01:49:11.017Z,100869.84
2018-12-16T01:51:39.952Z,100871.45
2018-12-16T01:54:08.783Z,100856.48
2018-12-16T01:56:37.677Z,100850.91
2018-12-16T01:59:06.552Z,100848.45
2018-12-16T02:01:35.441Z,100847.36
2018-12-16T02:04:04.369Z,100848.20
2018-12-16T02:06:33.461Z,100840.31
2018-12-16T02:09:02.633Z,100838.55
2018-12-16T02:11:33.549Z,100832.56
2018-12-16T02:14:03.378Z,100833.48
2018-12-16T02:16:32.211Z,100826.64
2018-12-16T02:19:01.073Z,100815.38
2018-12-16T02:21:29.978Z,100809.31
2018-12-16T02:23:58.784Z,100809.23
2018-12-16T02:26:27.644Z,100798.50
2018-12-16T02:28:56.534Z,100802.27
2018-12-16T02:31:25.966Z,100801.00
2018-12-16T02:33:55.337Z,100793.75
2018-12-16T02:36:24.241Z,100796.17
2018-12-16T02:38:53.068Z,100794.73
2018-12-16T02:41:21.907Z,100784.98
2018-12-16T02:43:50.729Z,100772.27
2018-12-16T02:46:19.600Z,100773.04
2018-12-16T02:48:48.490Z,100773.46
2018-12-16T02:51:17.550Z,100767.02
2018-12-16T02:53:46.586Z,100761.35
2018-12-16T02:56:15.450Z,100759.59
2018-12-16T02:58:44.342Z,100750.26
2018-12-16T03:01:13.241Z,100750.50
2018-12-16T03:03:42.145Z,100742.89
2018-12-16T03:06:12.553Z,100744.66
2018-12-16T03:08:41.442Z,100741.98
2018-12-16T03:11:10.409Z,100739.66
2018-12-16T03:13:39.337Z,100741.42
2018-12-16T03:16:08.338Z,100737.38
2018-12-16T03:18:37.319Z,100732.80
2018-12-16T03:21:06.188Z,100739.13
2018-12-16T03:23:35.093Z,100731.63
2018-12-16T03:26:04.201Z,100733.85
2018-12-16T03:28:33.078Z,100725.09
2018-12-16T03:31:01.969Z,100721.18
2018-12-16T03:33:30.970Z,100717.27
2018-12-16T03:35:59.858Z,100720.27
2018-12-16T03:38:28.710Z,100717.80
2018-12-16T03:40:57.685Z,100712.52
2018-12-16T03:43:26.641Z,100711.00
2018-12-16T03:45:55.530Z,100714.38
2018-12-16T03:48:24.420Z,100697.84
2018-12-16T03:50:53.400Z,100702.27
2018-12-16T03:53:22.281Z,100701.89
2018-12-16T03:55:51.187Z,100697.91
2018-12-16T03:58:20.071Z,100695.61
2018-12-16T04:00:49.065Z,100686.47
2018-12-16T04:03:18.003Z,100690.06
2018-12-16T04:05:46.989Z,100681.19
2018-12-16T04:08:15.950Z,100680.80
2018-12-16T04:10:44.837Z,100672.07
2018-12-16T04:13:13.714Z,100669.01
2018-12-16T04:15:42.748Z,100678.44
2018-12-16T04:18:11.615Z,100689.39
2018-12-16T04:20:40.503Z,100692.59
2018-12-16T04:23:09.396Z,100690.23
2018-12-16T04:25:38.404Z,100686.40
2018-12-16T04:28:09.358Z,100686.86
2018-12-16T04:30:38.412Z,100687.39
2018-12-16T04:33:07.283Z,100681.55
2018-12-16T04:35:36.207Z,100674.44
2018-12-16T04:38:05.109Z,100684.93
2018-12-16T04:40:34.214Z,100687.00
2018-12-16T04:43:03.212Z,100687.15
2018-12-16T04:45:32.084Z,100688.98
2018-12-16T04:48:01.044Z,100693.34
2018-12-16T04:50:29.937Z,100701.09
2018-12-16T04:52:58.832Z,100690.73
2018-12-16T04:55:27.772Z,100684.93
2018-12-16T04:57:56.645Z,100682.70
2018-12-16T05:00:25.818Z,100686.86
2018-12-16T05:02:54.727Z,100687.56
2018-12-16T05:05:23.680Z,100681.58
2018-12-16T05:07:52.670Z,100673.73
2018-12-16T05:10:28.322Z,100669.97
2018-12-16T05:12:57.261Z,100669.45
2018-12-16T05:15:26.272Z,100673.66
2018-12-16T05:17:55.225Z,100672.44
2018-12-16T05:20:24.204Z,100666.23
2018-12-16T05:22:53.124Z,100672.30
2018-12-16T05:25:21.964Z,100673.45
2018-12-16T05:27:50.872Z,100671.62
2018-12-16T05:30:19.811Z,100668.48
2018-12-16T05:32:48.669Z,100671.30
2018-12-16T05:35:17.477Z,100671.30
2018-12-16T05:37:46.461Z,100668.88
2018-12-16T05:40:15.337Z,100657.89
2018-12-16T05:42:44.270Z,100664.33
2018-12-16T05:45:13.174Z,100662.18
2018-12-16T05:47:42.102Z,100659.44
2018-12-16T05:50:11.373Z,100668.94
2018-12-16T05:52:40.290Z,100662.12
2018-12-16T05:55:09.181Z,100675.14
2018-12-16T05:57:38.305Z,100663.80
2018-12-16T06:00:08.281Z,100666.62
2018-12-16T06:02:37.277Z,100665.03
2018-12-16T06:05:06.397Z,100670.84
2018-12-16T06:07:35.299Z,100664.11
2018-12-16T06:10:04.504Z,100660.44
2018-12-16T06:12:33.399Z,100666.04
2018-12-16T06:20:19.653Z,100667.10
2018-12-16T06:22:48.543Z,100667.03
2018-12-16T06:25:17.665Z,100659.53
2018-12-16T06:27:47.257Z,100665.33
2018-12-16T06:30:16.585Z,100662.66
2018-12-16T06:32:45.481Z,100659.59
2018-12-16T06:35:14.352Z,100657.75
2018-12-16T06:37:43.245Z,100656.69
2018-12-16T06:40:12.142Z,100652.85
2018-12-16T06:42:40.964Z,100645.71
2018-12-16T06:45:10.505Z,100648.85
2018-12-16T06:47:39.391Z,100645.58
2018-12-16T06:50:08.652Z,100637.58
2018-12-16T06:52:37.624Z,100643.03
2018-12-16T06:55:06.820Z,100645.18
2018-12-16T06:57:35.698Z,100652.00
2018-12-16T07:00:05.542Z,100649.00
2018-12-16T07:02:34.607Z,100642.20
2018-12-16T07:05:03.683Z,100647.42
2018-12-16T07:07:32.596Z,100643.70
2018-12-16T07:10:02.031Z,100645.25
2018-12-16T07:12:30.940Z,100648.23
2018-12-16T07:14:59.898Z,100651.69
2018-12-16T07:17:28.864Z,100649.01
2018-12-16T07:19:57.820Z,100643.27
2018-12-16T07:22:26.795Z,100638.05
2018-12-16T07:24:55.771Z,100648.78
2018-12-16T07:27:24.650Z,100647.48
2018-12-16T07:29:53.620Z,100647.17
2018-12-16T07:32:22.545Z,100648.47
2018-12-16T07:34:51.416Z,100654.45
2018-12-16T07:37:20.289Z,100658.18
2018-12-16T07:39:49.204Z,100649.83
2018-12-16T07:42:18.112Z,100657.95
2018-12-16T07:44:46.982Z,100661.48
2018-12-16T07:47:16.461Z,100666.57
2018-12-16T07:49:45.394Z,100664.50
2018-12-16T07:52:14.372Z,100670.63
2018-12-16T07:54:43.244Z,100670.55
2018-12-16T07:57:12.621Z,100675.08
2018-12-16T07:59:42.469Z,100675.38
2018-12-16T08:02:11.467Z,100673.63
2018-12-16T08:04:40.401Z,100680.21
2018-12-16T08:07:12.233Z,100681.59
2018-12-16T08:09:41.068Z,100686.20
2018-12-16T08:12:09.928Z,100683.52
2018-12-16T08:14:38.884Z,100680.91
2018-12-16T08:17:07.778Z,100681.44
2018-12-16T08:19:36.751Z,100678.84
2018-12-16T08:22:05.653Z,100678.76
2018-12-16T08:24:34.641Z,100682.56
2018-12-16T08:27:03.469Z,100685.66
2018-12-16T08:29:32.413Z,100690.23
2018-12-16T08:32:02.246Z,100693.69
2018-12-16T08:34:31.452Z,100694.60
2018-12-16T08:37:00.289Z,100697.98
2018-12-16T08:39:29.321Z,100702.20
2018-12-16T08:41:58.854Z,100713.78
2018-12-16T08:44:28.906Z,100715.02
2018-12-16T08:46:57.761Z,100707.12
2018-12-16T08:49:26.561Z,100710.56
2018-12-16T08:51:55.397Z,100712.41
2018-12-16T08:54:30.086Z,100703.12
2018-12-16T08:56:55.335Z,100706.72
2018-12-16T08:59:24.165Z,100701.43
2018-12-16T09:01:53.749Z,100707.34
2018-12-16T09:04:22.802Z,100709.88
2018-12-16T09:06:51.625Z,100708.95
2018-12-16T09:09:20.934Z,100710.94
2018-12-16T09:11:49.910Z,100703.66
2018-12-16T09:14:18.813Z,100701.05
2018-12-16T09:16:47.851Z,100704.81
2018-12-16T09:19:16.716Z,100702.05
2018-12-16T09:21:45.798Z,100700.59
2018-12-16T09:24:14.630Z,100697.45
2018-12-16T09:26:43.581Z,100694.91
2018-12-16T09:29:12.462Z,100700.22
2018-12-16T09:31:41.296Z,100697.42
2018-12-16T09:34:10.257Z,100692.59
2018-12-16T09:36:39.460Z,100700.27
2018-12-16T09:39:08.884Z,100700.65
2018-12-16T09:41:37.752Z,100695.97
2018-12-16T09:44:06.724Z,100708.47
2018-12-16T09:46:36.541Z,100715.84
2018-12-16T09:49:05.456Z,100723.20
2018-12-16T09:51:34.856Z,100710.39
2018-12-16T09:54:04.606Z,100711.16
2018-12-16T09:56:34.055Z,100706.53
2018-12-16T09:59:03.427Z,100712.75
2018-12-16T10:01:32.493Z,100707.30
2018-12-16T10:04:01.324Z,100704.97
2018-12-16T10:06:30.614Z,100713.75
2018-12-16T10:08:59.938Z,100713.83
2018-12-16T10:11:28.902Z,100712.06
2018-12-16T10:13:57.810Z,100707.04
2018-12-16T10:16:26.721Z,100703.36
2018-12-16T10:18:55.585Z,100706.73
2018-12-16T10:21:24.596Z,100705.66
2018-12-16T10:23:53.483Z,100713.67
2018-12-16T10:26:22.465Z,100712.75
2018-12-16T10:28:51.355Z,100709.03
2018-12-16T10:31:20.262Z,100703.97
2018-12-16T10:33:49.200Z,100703.23
2018-12-16T10:36:18.258Z,100704.47
2018-12-16T10:38:47.097Z,100701.23
2018-12-16T10:41:15.941Z,100708.06
2018-12-16T10:43:45.636Z,100716.20
2018-12-16T10:46:17.448Z,100707.45
2018-12-16T10:48:46.465Z,100695.24
2018-12-16T10:51:15.370Z,100706.34
2018-12-16T10:53:45.361Z,100702.64
2018-12-16T10:56:14.521Z,100704.55
2018-12-16T10:58:44.394Z,100695.26
2018-12-16T11:01:18.658Z,100701.98
2018-12-16T11:03:47.561Z,100697.67
2018-12-16T11:06:16.484Z,100702.36
2018-12-16T11:08:45.933Z,100693.30
2018-12-16T11:11:14.766Z,100697.41
2018-12-16T11:13:43.668Z,100693.88
2018-12-16T11:16:12.578Z,100690.31
2018-12-16T11:18:41.557Z,100687.62
2018-12-16T11:21:10.545Z,100685.77
2018-12-16T11:23:39.444Z,100686.91
2018-12-16T11:26:09.132Z,100683.38
2018-12-16T11:28:38.133Z,100683.38
2018-12-16T11:31:07.005Z,100678.16
2018-12-16T11:33:37.623Z,100681.53
2018-12-16T11:36:06.476Z,100671.84
2018-12-16T11:38:35.343Z,100667.93
2018-12-16T11:41:04.635Z,100671.84
2018-12-16T11:43:33.668Z,100671.55
2018-12-16T11:46:02.572Z,100666.41
2018-12-16T11:48:31.460Z,100664.94
2018-12-16T11:51:00.485Z,100661.95
2018-12-16T11:53:29.401Z,100658.95
2018-12-16T11:55:58.339Z,100658.95
2018-12-16T11:58:27.333Z,100648.97
2018-12-16T12:00:56.214Z,100648.51
2018-12-16T12:03:25.044Z,100663.72
2018-12-16T12:05:55.898Z,100661.65
2018-12-16T12:08:24.834Z,100661.73
2018-12-16T12:10:53.893Z,100656.05
2018-12-16T12:13:22.777Z,100655.97
2018-12-16T12:15:51.676Z,100662.49
2018-12-16T12:18:20.544Z,100653.35
2018-12-16T12:20:49.454Z,100654.73
2018-12-16T12:23:18.358Z,100659.33
2018-12-16T12:25:47.293Z,100656.09
2018-12-16T12:28:16.394Z,100662.89
2018-12-16T12:30:45.340Z,100664.78
2018-12-16T12:33:14.703Z,100660.39
2018-12-16T12:35:43.540Z,100660.66
2018-12-16T12:38:12.494Z,100657.13
2018-12-16T12:40:41.389Z,100660.96
2018-12-16T12:43:10.216Z,100670.10
2018-12-16T12:45:39.170Z,100668.41
2018-12-16T12:48:08.013Z,100674.31
2018-12-16T12:50:36.936Z,100671.63
2018-12-16T12:53:05.837Z,100682.45
2018-12-16T12:55:34.760Z,100685.91
2018-12-16T12:58:03.803Z,100684.59
2018-12-16T13:00:33.465Z,100681.14
2018-12-16T13:03:02.547Z,100677.61
2018-12-16T13:05:36.958Z,100671.76
2018-12-16T13:08:02.372Z,100679.48
2018-12-16T13:10:31.365Z,100678.09
2018-12-16T13:13:00.340Z,100678.09
2018-12-16T13:15:29.245Z,100692.66
2018-12-16T13:17:58.077Z,100679.76
2018-12-16T13:20:28.570Z,100683.30
2018-12-16T13:22:57.696Z,100675.16
2018-12-16T13:26:04.702Z,100681.23
2018-12-16T13:28:33.628Z,100680.14
2018-12-16T13:31:02.618Z,100685.28
2018-12-16T13:33:31.518Z,100681.74
2018-12-16T13:36:00.385Z,100679.48
2018-12-16T13:38:29.432Z,100670.25
2018-12-16T13:40:58.378Z,100670.09
2018-12-16T13:43:27.284Z,100674.00
2018-12-16T13:45:56.172Z,100676.53
2018-12-16T13:48:25.037Z,100675.98
2018-12-16T13:50:53.936Z,100682.06
2018-12-16T13:53:22.848Z,100686.44
2018-12-16T13:55:51.664Z,100686.73
2018-12-16T13:58:20.510Z,100687.87
2018-12-16T14:00:49.345Z,100687.30
2018-12-16T14:03:18.185Z,100689.91
2018-12-16T14:05:47.117Z,100690.11
2018-12-16T14:08:16.796Z,100681.52
2018-12-16T14:10:45.668Z,100677.67
2018-12-16T14:13:14.554Z,100672.91
2018-12-16T14:15:43.653Z,100678.81
2018-12-16T14:18:12.478Z,100675.28
2018-12-16T14:20:41.323Z,100686.19
2018-12-16T14:23:10.264Z,100690.87
2018-12-16T14:25:39.109Z,100686.38
2018-12-16T14:28:08.121Z,100688.91
2018-12-16T14:30:37.400Z,100694.05
2018-12-16T14:33:06.512Z,100686.20
2018-12-16T14:35:35.384Z,100691.81
2018-12-16T14:38:04.792Z,100695.73
2018-12-16T14:40:33.698Z,100703.48
2018-12-16T14:43:02.614Z,100702.56
2018-12-16T14:45:31.569Z,100699.11
2018-12-16T14:48:00.526Z,100700.79
2018-12-16T14:50:29.359Z,100707.33
2018-12-16T14:52:58.341Z,100707.33
2018-12-16T14:55:27.866Z,100703.41
2018-12-16T14:57:56.698Z,100715.00
2018-12-16T15:00:25.589Z,100711.92
2018-12-16T15:02:55.642Z,100717.61
2018-12-16T15:05:24.604Z,100715.55
2018-12-16T15:07:53.775Z,100720.39
2018-12-16T15:10:22.761Z,100728.86
2018-12-16T15:12:51.705Z,100738.47
2018-12-16T15:15:21.648Z,100741.08
2018-12-16T15:17:50.598Z,100736.94
2018-12-16T15:20:19.817Z,100731.91
2018-12-16T15:22:48.601Z,100732.67
2018-12-16T15:25:17.489Z,100738.25
2018-12-16T15:27:46.313Z,100740.78
2018-12-16T15:30:15.174Z,100739.31
2018-12-16T15:32:44.286Z,100743.14
2018-12-16T15:35:13.157Z,100747.91
2018-12-16T15:37:42.057Z,100743.69
2018-12-16T15:40:10.964Z,100744.62
2018-12-16T15:42:39.937Z,100743.77
2018-12-16T15:45:10.281Z,100737.70
2018-12-16T15:47:39.310Z,100742.92
2018-12-16T15:50:09.709Z,100740.78
2018-12-16T15:52:38.674Z,100746.30
2018-12-16T15:55:09.934Z,100742.00
2018-12-16T15:57:40.787Z,100747.69
2018-12-16T16:00:10.074Z,100743.31
2018-12-16T16:02:39.208Z,100742.09
2018-12-16T16:05:08.252Z,100748.70
2018-12-16T16:07:37.769Z,100750.00
2018-12-16T16:10:08.153Z,100745.73
2018-12-16T16:12:37.073Z,100739.28
2018-12-16T16:15:06.789Z,100744.98
2018-12-16T16:17:35.704Z,100744.22
2018-12-16T16:20:05.602Z,100750.61
2018-12-16T16:22:34.580Z,100761.44
2018-12-16T16:25:03.588Z,100761.52
2018-12-16T16:27:32.580Z,100761.13
2018-12-16T16:30:01.500Z,100762.83
2018-12-16T16:32:31.580Z,100765.82
2018-12-16T16:35:00.441Z,100770.50
2018-12-16T16:37:29.361Z,100774.80
2018-12-16T16:39:58.386Z,100775.56
2018-12-16T16:42:27.348Z,100781.55
2018-12-16T16:44:56.228Z,100773.17
2018-12-16T16:47:24.278Z,100773.98
2018-12-16T16:49:53.381Z,100774.75
2018-12-16T16:52:22.292Z,100769.44
2018-12-16T16:54:51.776Z,100774.58
2018-12-16T16:57:20.698Z,100774.04
2018-12-16T16:59:49.527Z,100777.49
2018-12-16T17:02:19.380Z,100776.57
2018-12-16T17:04:48.273Z,100784.33
2018-12-16T17:07:17.137Z,100785.47
2018-12-16T17:09:46.056Z,100788.47
2018-12-16T17:12:14.941Z,100786.58
2018-12-16T17:14:43.837Z,100785.73
2018-12-16T17:17:12.722Z,100779.67
2018-12-16T17:19:41.612Z,100782.78
2018-12-16T17:22:10.510Z,100782.66
2018-12-16T17:24:39.515Z,100780.81
2018-12-16T17:27:08.495Z,100781.19
2018-12-16T17:29:37.412Z,100780.34
2018-12-16T17:32:06.307Z,100787.27
2018-12-16T17:34:35.227Z,100784.19
2018-12-16T17:37:04.065Z,100779.59
2018-12-16T17:39:32.935Z,100791.92
2018-12-16T17:42:01.832Z,100787.41
2018-12-16T17:44:30.820Z,100784.66
2018-12-16T17:46:59.705Z,100779.70
2018-12-16T17:49:28.802Z,100773.71
2018-12-16T17:51:58.613Z,100784.33
2018-12-16T17:54:27.509Z,100799.23
2018-12-16T17:56:56.392Z,100794.91
2018-12-16T17:59:25.280Z,100797.33
2018-12-16T18:01:54.480Z,100798.44
2018-12-16T18:04:23.377Z,100809.97
2018-12-16T18:06:52.260Z,100813.13
2018-12-16T18:09:21.281Z,100809.74
2018-12-16T18:11:50.245Z,100810.75
2018-12-16T18:14:19.083Z,100810.44
2018-12-16T18:16:49.364Z,100813.81
2018-12-16T18:19:18.252Z,100818.66
2018-12-16T18:21:47.584Z,100819.96
2018-12-16T18:24:16.453Z,100818.66
2018-12-16T18:26:45.441Z,100823.87
2018-12-16T18:29:14.349Z,100832.48
2018-12-16T18:31:43.212Z,100827.48
2018-12-16T18:34:12.132Z,100823.41
2018-12-16T18:36:41.020Z,100823.14
2018-12-16T18:39:10.412Z,100820.37
2018-12-16T18:41:40.295Z,100821.06
2018-12-16T18:44:09.474Z,100838.80
2018-12-16T18:46:38.370Z,100835.27
2018-12-16T18:49:07.927Z,100825.97
2018-12-16T18:51:37.179Z,100829.34
2018-12-16T18:54:06.108Z,100832.69
2018-12-16T18:56:35.104Z,100825.42
2018-12-16T18:59:04.027Z,100830.84
2018-12-16T19:01:32.938Z,100828.23
2018-12-16T19:04:01.729Z,100838.06
2018-12-16T19:06:31.070Z,100839.83
2018-12-16T19:08:59.967Z,100838.52
2018-12-16T19:11:29.985Z,100842.83
2018-12-16T19:13:58.877Z,100844.52
2018-12-16T19:16:28.656Z,100847.13
2018-12-16T19:18:57.970Z,100851.05
2018-12-16T19:21:27.106Z,100843.59
2018-12-16T19:23:56.084Z,100842.66
2018-12-16T19:26:25.018Z,100844.89
2018-12-16T19:28:53.953Z,100849.27
2018-12-16T19:31:22.833Z,100845.82
2018-12-16T19:33:51.852Z,100853.50
2018-12-16T19:36:20.818Z,100850.50
2018-12-16T19:38:49.728Z,100858.50
2018-12-16T19:41:18.611Z,100859.89
2018-12-16T19:43:47.508Z,100862.04
2018-12-16T19:46:16.592Z,100864.57
2018-12-16T19:48:45.468Z,100865.64
2018-12-16T19:51:14.480Z,100876.37
2018-12-16T19:53:43.452Z,100873.67
2018-12-16T19:56:12.276Z,100874.90
2018-12-16T19:58:41.210Z,100875.20
2018-12-16T20:01:10.130Z,100873.81
2018-12-16T20:03:43.281Z,100875.97
2018-12-16T20:06:17.576Z,100880.35
2018-12-16T20:08:46.409Z,100884.27
2018-12-16T20:11:15.317Z,100885.20
2018-12-16T20:13:44.209Z,100893.96
2018-12-16T20:16:13.128Z,100884.89
2018-12-16T20:18:42.432Z,100892.05
2018-12-16T20:21:11.314Z,100899.61
2018-12-16T20:23:40.297Z,100900.31
2018-12-16T20:26:09.180Z,100894.32
2018-12-16T20:28:38.071Z,100896.16
2018-12-16T20:31:06.951Z,100901.93
2018-12-16T20:33:35.965Z,100902.97
2018-12-16T20:36:04.940Z,100904.42
2018-12-16T20:38:33.831Z,100913.27
2018-12-16T20:41:02.850Z,100917.34
2018-12-16T20:43:31.721Z,100919.95
2018-12-16T20:46:00.899Z,100921.72
2018-12-16T20:48:29.900Z,100916.95
2018-12-16T20:50:58.724Z,100920.48
2018-12-16T20:53:27.733Z,100924.48
2018-12-16T20:55:56.589Z,100918.48
2018-12-16T20:58:25.601Z,100914.22
2018-12-16T21:00:55.415Z,100925.86
2018-12-16T21:03:24.335Z,100931.66
2018-12-16T21:05:53.713Z,100932.96
2018-12-16T21:08:22.564Z,100929.51
2018-12-16T21:10:51.452Z,100930.81
2018-12-16T21:13:25.741Z,100928.27
2018-12-16T21:15:59.881Z,100928.27
2018-12-16T21:18:30.435Z,100926.58
2018-12-16T21:20:59.400Z,100927.97
2018-12-16T21:23:28.512Z,100925.36
2018-12-16T21:25:57.489Z,100928.89
2018-12-16T21:28:26.376Z,100934.19
2018-12-16T21:30:55.262Z,100937.19
2018-12-16T21:33:24.280Z,100933.66
2018-12-16T21:35:53.240Z,100938.48
2018-12-16T21:38:22.131Z,100938.48
2018-12-16T21:40:51.025Z,100942.79
2018-12-16T21:43:20.925Z,100931.58
2018-12-16T21:45:49.832Z,100938.87
2018-12-16T21:48:18.742Z,100929.73
2018-12-16T21:50:47.717Z,100934.95
2018-12-16T21:53:16.617Z,100929.73
2018-12-16T21:55:45.441Z,100930.12
2018-12-16T21:58:14.313Z,100933.58
2018-12-16T22:00:43.277Z,100929.20
2018-12-16T22:03:12.169Z,100938.34
2018-12-16T22:05:41.224Z,100937.95
2018-12-16T22:08:10.051Z,100940.18
2018-12-16T22:10:39.014Z,100939.80
2018-12-16T22:13:07.985Z,100937.19
2018-12-16T22:15:37.058Z,100937.64
2018-12-16T22:18:05.901Z,100942.02
2018-12-16T22:20:34.982Z,100938.25
2018-12-16T22:23:04.876Z,100945.63
2018-12-16T22:25:33.960Z,100947.39
2018-12-16T22:28:02.821Z,100946.55
2018-12-16T22:30:31.829Z,100961.76
2018-12-16T22:33:00.796Z,100958.30
2018-12-16T22:35:29.688Z,100966.98
2018-12-16T22:37:58.577Z,100958.77
2018-12-16T22:40:27.809Z,100960.45
2018-12-16T22:42:56.798Z,100966.06
2018-12-16T22:45:25.657Z,100965.67
2018-12-16T22:47:54.563Z,100962.30
2018-12-16T22:50:24.478Z,100966.14
2018-12-16T22:52:53.407Z,100962.69
2018-12-16T22:55:22.369Z,100962.30
2018-12-16T22:57:51.273Z,100966.39
2018-12-16T23:00:20.283Z,100971.16
2018-12-16T23:02:51.153Z,100965.55
2018-12-16T23:05:20.084Z,100976.91
2018-12-16T23:07:49.064Z,100963.55
2018-12-16T23:10:17.957Z,100967.08
2018-12-16T23:12:46.879Z,100968.00
2018-12-16T23:15:15.832Z,100968.06
2018-12-16T23:17:44.715Z,100971.45
2018-12-16T23:20:20.173Z,100964.47
2018-12-16T23:22:49.060Z,100961.54
2018-12-16T23:25:17.982Z,100964.61
2018-12-16T23:27:46.915Z,100965.53
2018-12-16T23:30:15.824Z,100968.98
2018-12-16T23:32:44.733Z,100974.52
2018-12-16T23:35:13.552Z,100970.39
2018-12-16T23:37:42.397Z,100977.12
2018-12-16T23:40:11.300Z,100968.29
2018-12-16T23:42:40.195Z,100972.98
2018-12-16T23:45:09.801Z,100981.05
2018-12-16T23:47:38.685Z,100984.82
2018-12-16T23:50:07.830Z,100985.41
2018-12-16T23:52:36.652Z,100980.03
2018-12-16T23:55:06.476Z,100976.34
2018-12-16T23:57:35.454Z,100979.27
